Time;durP1;ratioP1;P1;durP2;ratioP2;P2;SDS_P1;SDS_P2;PMS_P1;PMS_P2;Temp;Humidity;BMP_temperature;BMP_pressure;BME280_temperature;BME280_humidity;BME280_pressure;Samples;Min_cycle;Max_cycle;Signal;HPM_P1;HPM_P2
2022/10/30 00:02:46;;;;;;;13.45;3.55;;;16.90;99.90;;;;;;7346867;32;20142;-61
2022/10/30 00:06:48;;;;;;;9.13;3.80;;;16.90;99.90;;;;;;7342417;32;20172;-60
2022/10/30 00:10:49;;;;;;;15.30;3.80;;;16.80;99.90;;;;;;7351570;32;20115;-59
2022/10/30 00:14:51;;;;;;;10.95;3.78;;;16.80;99.90;;;;;;7342438;32;20221;-60
2022/10/30 00:18:53;;;;;;;15.65;4.12;;;16.80;99.90;;;;;;7354583;32;20141;-59
2022/10/30 00:22:55;;;;;;;12.30;3.90;;;16.70;99.90;;;;;;7345867;32;20191;-60
2022/10/30 00:26:57;;;;;;;14.15;4.05;;;16.70;99.90;;;;;;7353540;32;20572;-59
2022/10/30 00:31:00;;;;;;;8.95;3.22;;;16.60;99.90;;;;;;7345982;32;20519;-60
2022/10/30 00:35:03;;;;;;;10.25;3.75;;;16.60;99.90;;;;;;7357834;32;20817;-61
2022/10/30 00:39:05;;;;;;;15.30;4.03;;;16.60;99.90;;;;;;7360358;32;20107;-60
2022/10/30 00:43:25;;;;;;;10.07;3.87;;;16.50;99.90;;;;;;7357734;32;20103;-59
2022/10/30 00:47:33;;;;;;;14.18;4.07;;;16.50;99.90;;;;;;7356195;32;20106;-60
2022/10/30 00:51:38;;;;;;;10.18;3.90;;;16.40;99.90;;;;;;7358253;32;20148;-60
2022/10/30 00:55:51;;;;;;;11.12;4.25;;;16.40;99.90;;;;;;7357587;32;20149;-60
2022/10/30 00:59:52;;;;;;;10.88;3.87;;;16.30;99.90;;;;;;7360047;32;20127;-60
2022/10/30 01:03:57;;;;;;;11.65;3.42;;;16.20;99.90;;;;;;7352589;32;20146;-60
2022/10/30 01:07:58;;;;;;;13.82;3.83;;;16.20;99.90;;;;;;7359508;32;20115;-60
2022/10/30 01:12:01;;;;;;;12.25;3.92;;;16.10;99.90;;;;;;7351982;32;20129;-60
2022/10/30 01:16:38;;;;;;;11.35;3.85;;;16.00;99.90;;;;;;7352672;32;20107;-60
2022/10/30 01:21:13;;;;;;;10.00;3.87;;;15.90;99.90;;;;;;7351741;32;20108;-60
2022/10/30 01:25:42;;;;;;;9.98;3.97;;;15.80;99.90;;;;;;7358163;32;20142;-60
2022/10/30 01:30:02;;;;;;;12.70;4.47;;;15.70;99.90;;;;;;7347079;32;20206;-60
2022/10/30 01:34:09;;;;;;;9.43;3.65;;;15.50;99.90;;;;;;7351909;32;20203;-60
2022/10/30 01:38:34;;;;;;;10.77;3.90;;;15.40;99.90;;;;;;7356667;32;20111;-61
2022/10/30 01:42:56;;;;;;;12.20;4.35;;;15.30;99.90;;;;;;7342357;32;20126;-60
2022/10/30 01:47:27;;;;;;;12.55;4.32;;;15.30;99.90;;;;;;7350511;32;20129;-59
2022/10/30 01:52:06;;;;;;;11.77;4.12;;;15.30;99.90;;;;;;7349358;32;20137;-60
2022/10/30 01:56:36;;;;;;;10.35;4.47;;;15.30;99.90;;;;;;7352148;32;20190;-59
2022/10/30 02:00:41;;;;;;;15.88;5.00;;;15.20;99.90;;;;;;7351688;32;20170;-59
2022/10/30 02:04:43;;;;;;;11.43;4.60;;;15.20;99.90;;;;;;7358066;32;20111;-59
2022/10/30 02:08:44;;;;;;;12.57;4.55;;;15.10;99.90;;;;;;7346591;32;20124;-60
2022/10/30 02:12:47;;;;;;;13.15;4.47;;;15.10;99.90;;;;;;7351340;32;20568;-60
2022/10/30 02:16:50;;;;;;;15.57;4.37;;;15.10;99.90;;;;;;7352687;32;20550;-60
2022/10/30 02:20:52;;;;;;;11.18;4.35;;;15.00;99.90;;;;;;7353501;32;20133;-59
2022/10/30 02:24:54;;;;;;;9.77;4.53;;;15.00;99.90;;;;;;7355939;32;20264;-60
2022/10/30 02:28:56;;;;;;;16.05;4.55;;;15.00;99.90;;;;;;7352620;32;20761;-60
2022/10/30 02:32:57;;;;;;;12.13;4.65;;;15.00;99.90;;;;;;7354288;32;20125;-59
2022/10/30 02:36:59;;;;;;;11.07;4.50;;;15.00;99.90;;;;;;7340183;32;20112;-59
2022/10/30 02:41:01;;;;;;;12.57;4.65;;;15.10;99.90;;;;;;7346762;32;20112;-61
2022/10/30 02:45:03;;;;;;;13.23;4.68;;;15.00;99.90;;;;;;7345770;32;20114;-60
2022/10/30 02:49:05;;;;;;;10.85;5.12;;;15.10;99.90;;;;;;7352670;32;20172;-60
2022/10/30 02:53:07;;;;;;;12.43;4.10;;;15.10;99.90;;;;;;7355112;32;20119;-59
2022/10/30 02:57:09;;;;;;;11.95;4.57;;;15.10;99.90;;;;;;7346440;32;20107;-60
2022/10/30 03:01:16;;;;;;;8.73;3.90;;;15.00;99.90;;;;;;7350997;32;20495;-59
2022/10/30 03:05:18;;;;;;;13.77;5.05;;;15.00;99.90;;;;;;7352338;32;20133;-59
2022/10/30 03:09:20;;;;;;;11.12;4.60;;;14.90;99.90;;;;;;7356489;32;20161;-59
2022/10/30 03:13:21;;;;;;;13.57;4.93;;;14.90;99.90;;;;;;7350212;32;20527;-60
2022/10/30 03:17:23;;;;;;;16.67;4.40;;;14.80;99.90;;;;;;7346880;32;20115;-61
2022/10/30 03:21:26;;;;;;;8.98;4.32;;;14.80;99.90;;;;;;7346697;32;20932;-60
2022/10/30 03:25:28;;;;;;;15.30;4.85;;;14.80;99.90;;;;;;7351959;32;20202;-59
2022/10/30 03:29:29;;;;;;;15.18;5.53;;;14.70;99.90;;;;;;7346414;32;20757;-59
2022/10/30 03:33:31;;;;;;;15.50;5.30;;;14.70;99.90;;;;;;7348302;32;20986;-59
2022/10/30 03:37:33;;;;;;;14.13;4.37;;;14.60;99.90;;;;;;7348522;32;20641;-59
2022/10/30 03:41:35;;;;;;;11.00;4.80;;;14.60;99.90;;;;;;7349150;32;20114;-60
2022/10/30 03:45:36;;;;;;;12.63;5.12;;;14.50;99.90;;;;;;7349134;32;20453;-59
2022/10/30 03:49:38;;;;;;;13.43;5.10;;;14.40;99.90;;;;;;7342126;32;20134;-60
2022/10/30 03:53:40;;;;;;;13.88;5.25;;;14.30;99.90;;;;;;7352457;32;20115;-59
2022/10/30 03:57:50;;;;;;;12.23;5.15;;;14.30;99.90;;;;;;7348973;32;20150;-59
2022/10/30 04:01:52;;;;;;;10.02;4.57;;;14.20;99.90;;;;;;7347050;32;20115;-60
2022/10/30 04:05:54;;;;;;;12.25;4.95;;;14.10;99.90;;;;;;7343793;32;20215;-60
2022/10/30 04:09:56;;;;;;;13.50;5.35;;;14.00;99.90;;;;;;7355628;32;20558;-59
2022/10/30 04:13:57;;;;;;;13.80;5.00;;;13.80;99.90;;;;;;7348786;32;20138;-59
2022/10/30 04:17:59;;;;;;;16.33;6.00;;;13.60;99.90;;;;;;7352899;32;20509;-59
2022/10/30 04:22:02;;;;;;;17.15;5.70;;;13.40;99.90;;;;;;7353790;32;20618;-59
2022/10/30 04:26:04;;;;;;;13.10;5.37;;;13.20;99.90;;;;;;7354077;32;20257;-60
2022/10/30 04:30:06;;;;;;;17.05;5.55;;;13.10;99.90;;;;;;7355143;32;20221;-59
2022/10/30 04:34:08;;;;;;;19.87;5.75;;;13.00;99.90;;;;;;7352675;32;20134;-59
2022/10/30 04:38:12;;;;;;;12.98;5.40;;;13.10;99.90;;;;;;7351836;32;20145;-60
2022/10/30 04:42:14;;;;;;;14.63;5.30;;;13.00;99.90;;;;;;7350056;32;20266;-59
2022/10/30 04:46:16;;;;;;;20.48;5.35;;;12.90;99.90;;;;;;7356155;32;20107;-59
2022/10/30 04:50:18;;;;;;;14.20;4.78;;;12.80;99.90;;;;;;7352708;32;20189;-60
2022/10/30 04:54:20;;;;;;;15.40;5.30;;;12.60;99.90;;;;;;7356417;32;20107;-59
2022/10/30 04:58:22;;;;;;;12.02;5.62;;;12.50;99.90;;;;;;7356764;32;20539;-59
2022/10/30 05:02:24;;;;;;;15.88;4.97;;;12.40;99.90;;;;;;7353208;32;21832;-59
2022/10/30 05:06:29;;;;;;;19.75;5.82;;;12.40;99.90;;;;;;7353844;32;20133;-58
2022/10/30 05:10:30;;;;;;;10.20;5.22;;;12.40;99.90;;;;;;7354789;32;20142;-58
2022/10/30 05:14:32;;;;;;;11.52;5.10;;;12.20;99.90;;;;;;7352978;32;20111;-59
2022/10/30 05:18:34;;;;;;;12.80;5.32;;;12.10;99.90;;;;;;7351923;32;20968;-59
2022/10/30 05:22:36;;;;;;;11.98;5.22;;;12.10;99.90;;;;;;7353896;32;20104;-59
2022/10/30 05:26:37;;;;;;;15.43;5.37;;;12.00;99.90;;;;;;7347675;32;20555;-59
2022/10/30 05:30:39;;;;;;;20.42;5.97;;;12.00;99.90;;;;;;7345236;32;20142;-59
2022/10/30 05:34:41;;;;;;;13.00;5.37;;;11.90;99.90;;;;;;7353766;32;20130;-58
2022/10/30 05:38:42;;;;;;;13.02;6.15;;;11.80;99.90;;;;;;7352662;32;20107;-59
2022/10/30 05:42:48;;;;;;;18.17;6.35;;;11.80;99.90;;;;;;7356296;32;20273;-60
2022/10/30 05:46:49;;;;;;;16.98;5.53;;;11.70;99.90;;;;;;7346656;32;20130;-59
2022/10/30 05:50:51;;;;;;;12.85;5.28;;;11.70;99.90;;;;;;7356168;32;20218;-59
2022/10/30 05:54:52;;;;;;;16.70;6.25;;;11.60;99.90;;;;;;7358816;32;20173;-58
2022/10/30 05:58:54;;;;;;;15.82;5.70;;;11.60;99.90;;;;;;7354329;32;20225;-59
2022/10/30 06:03:01;;;;;;;12.90;5.53;;;11.50;99.90;;;;;;7353081;32;20115;-59
2022/10/30 06:07:04;;;;;;;14.77;5.30;;;11.40;99.90;;;;;;7345943;32;20509;-59
2022/10/30 06:11:05;;;;;;;16.52;6.22;;;11.40;99.90;;;;;;7349157;32;20291;-59
2022/10/30 06:15:07;;;;;;;14.75;5.55;;;11.30;99.90;;;;;;7346859;32;20142;-58
2022/10/30 06:19:09;;;;;;;11.68;5.57;;;11.30;99.90;;;;;;7351317;32;20217;-59
2022/10/30 06:23:19;;;;;;;12.48;5.55;;;11.20;99.90;;;;;;7350648;32;20111;-59
2022/10/30 06:27:20;;;;;;;16.98;5.45;;;11.10;99.90;;;;;;7346033;32;20491;-59
2022/10/30 06:31:22;;;;;;;12.90;5.35;;;11.10;99.90;;;;;;7350257;32;20107;-59
2022/10/30 06:35:24;;;;;;;16.42;5.85;;;11.10;99.90;;;;;;7350768;32;20178;-59
2022/10/30 06:39:25;;;;;;;15.95;6.28;;;11.00;99.90;;;;;;7352202;32;20162;-59
2022/10/30 06:43:27;;;;;;;12.48;5.35;;;11.00;99.90;;;;;;7350905;32;20103;-59
2022/10/30 06:47:34;;;;;;;12.25;5.25;;;11.00;99.90;;;;;;7357864;32;20138;-58
2022/10/30 06:51:35;;;;;;;10.07;5.57;;;11.00;99.90;;;;;;7354075;32;20119;-58
2022/10/30 06:55:37;;;;;;;15.02;5.72;;;10.90;99.90;;;;;;7350313;32;20111;-58
2022/10/30 06:59:38;;;;;;;13.98;6.03;;;10.90;99.90;;;;;;7352467;32;20115;-58
2022/10/30 07:03:40;;;;;;;14.05;6.10;;;11.00;99.90;;;;;;7346316;32;20788;-64
2022/10/30 07:07:42;;;;;;;12.27;5.47;;;10.90;99.90;;;;;;7347821;32;20123;-64
2022/10/30 07:11:44;;;;;;;18.98;6.80;;;11.00;99.90;;;;;;7347023;32;20112;-64
2022/10/30 07:15:46;;;;;;;13.18;6.40;;;11.00;99.90;;;;;;7353787;32;20560;-63
2022/10/30 07:19:48;;;;;;;10.50;5.62;;;11.00;99.90;;;;;;7354740;32;20138;-64
2022/10/30 07:23:49;;;;;;;13.23;6.00;;;11.10;99.90;;;;;;7352518;32;20523;-64
2022/10/30 07:27:52;;;;;;;12.37;6.05;;;11.10;99.90;;;;;;7348622;32;20511;-64
2022/10/30 07:31:54;;;;;;;12.45;5.87;;;11.20;99.90;;;;;;7349612;32;20218;-66
2022/10/30 07:36:04;;;;;;;17.55;7.03;;;11.30;99.90;;;;;;7345659;32;20178;-64
2022/10/30 07:40:06;;;;;;;11.75;5.57;;;11.30;99.90;;;;;;7352166;32;20115;-65
2022/10/30 07:44:13;;;;;;;17.77;6.28;;;11.40;99.90;;;;;;7347221;32;20126;-63
2022/10/30 07:48:15;;;;;;;17.83;6.95;;;11.50;99.90;;;;;;7347887;32;20617;-65
2022/10/30 07:52:16;;;;;;;9.07;5.87;;;11.60;99.90;;;;;;7346906;32;20134;-64
2022/10/30 07:56:18;;;;;;;16.05;6.22;;;11.80;99.90;;;;;;7343089;32;20126;-64
2022/10/30 08:00:20;;;;;;;22.27;11.65;;;11.90;99.90;;;;;;7347327;32;20180;-64
2022/10/30 08:04:22;;;;;;;18.35;9.63;;;12.20;99.90;;;;;;7351912;32;20104;-64
2022/10/30 08:08:23;;;;;;;13.25;6.68;;;12.30;99.90;;;;;;7350975;32;20261;-63
2022/10/30 08:12:26;;;;;;;18.60;6.68;;;12.70;99.90;;;;;;7347468;32;20206;-64
2022/10/30 08:16:27;;;;;;;20.17;9.40;;;12.90;99.90;;;;;;7347604;32;20544;-65
2022/10/30 08:20:29;;;;;;;17.20;6.05;;;13.20;99.90;;;;;;7348490;32;20141;-64
2022/10/30 08:24:31;;;;;;;11.05;5.82;;;13.50;99.90;;;;;;7348273;32;20131;-64
2022/10/30 08:28:33;;;;;;;14.87;6.12;;;13.60;99.90;;;;;;7347311;32;20231;-64
2022/10/30 08:32:34;;;;;;;12.13;5.93;;;13.90;99.90;;;;;;7348862;32;20168;-64
2022/10/30 08:36:36;;;;;;;13.32;5.80;;;14.20;99.90;;;;;;7348073;32;20134;-59
2022/10/30 08:40:37;;;;;;;13.35;6.43;;;14.40;99.90;;;;;;7343465;32;20153;-63
2022/10/30 08:44:39;;;;;;;13.60;5.07;;;14.70;99.90;;;;;;7347241;32;20128;-64
2022/10/30 08:48:41;;;;;;;9.82;4.53;;;14.90;99.90;;;;;;7344171;32;20186;-63
2022/10/30 08:52:42;;;;;;;10.93;4.57;;;15.10;99.90;;;;;;7345340;32;20115;-63
2022/10/30 08:56:44;;;;;;;14.43;5.00;;;15.20;99.90;;;;;;7356237;32;20108;-64
2022/10/30 09:00:46;;;;;;;12.43;5.18;;;15.30;99.90;;;;;;7352845;32;20119;-64
2022/10/30 09:04:47;;;;;;;11.98;5.15;;;15.50;99.90;;;;;;7355417;32;20119;-64
2022/10/30 09:08:49;;;;;;;10.38;4.10;;;15.70;99.90;;;;;;7349420;32;20190;-65
2022/10/30 09:12:58;;;;;;;14.73;4.22;;;15.80;99.90;;;;;;7347434;32;20112;-65
2022/10/30 09:16:59;;;;;;;8.60;4.10;;;16.00;99.90;;;;;;7355834;32;20115;-64
2022/10/30 09:21:01;;;;;;;14.80;4.68;;;16.20;99.90;;;;;;7348913;32;20112;-66
2022/10/30 09:25:06;;;;;;;17.77;4.72;;;16.50;99.90;;;;;;7350501;32;20098;-64
2022/10/30 09:29:08;;;;;;;11.63;4.75;;;16.90;99.90;;;;;;7352995;32;20134;-64
2022/10/30 09:33:09;;;;;;;11.82;4.45;;;17.30;99.90;;;;;;7349405;32;20225;-64
2022/10/30 09:37:11;;;;;;;11.15;3.83;;;17.90;99.90;;;;;;7351609;32;20107;-63
2022/10/30 09:41:31;;;;;;;14.65;4.10;;;18.90;99.90;;;;;;7346514;32;20102;-63
2022/10/30 09:45:50;;;;;;;12.40;4.07;;;19.70;99.90;;;;;;7346507;32;20107;-63
2022/10/30 09:50:02;;;;;;;13.62;4.12;;;20.10;99.90;;;;;;7351569;32;20155;-63
2022/10/30 09:54:36;;;;;;;9.85;4.20;;;19.80;99.90;;;;;;7353025;32;20112;-64
2022/10/30 09:59:02;;;;;;;12.80;3.80;;;19.50;99.90;;;;;;7353052;32;20107;-62
2022/10/30 10:03:30;;;;;;;13.77;3.85;;;19.40;99.90;;;;;;7347516;32;20111;-62
2022/10/30 10:07:37;;;;;;;15.15;3.78;;;19.40;99.90;;;;;;7348766;32;20786;-64
2022/10/30 10:11:44;;;;;;;14.27;3.97;;;19.30;99.90;;;;;;7353592;32;20157;-64
2022/10/30 10:15:53;;;;;;;11.45;4.00;;;19.20;99.90;;;;;;7354459;32;20212;-65
2022/10/30 10:20:00;;;;;;;12.55;4.28;;;19.00;99.90;;;;;;7346964;32;20186;-64
2022/10/30 10:24:03;;;;;;;15.43;3.77;;;19.00;99.90;;;;;;7352682;32;20133;-65
2022/10/30 10:28:13;;;;;;;14.38;4.37;;;18.90;99.90;;;;;;7356879;32;20103;-64
2022/10/30 10:32:57;;;;;;;7.90;3.58;;;18.90;99.90;;;;;;7347805;32;20269;-65
2022/10/30 10:37:20;;;;;;;10.77;4.62;;;19.00;99.90;;;;;;7346071;32;20133;-63
2022/10/30 10:41:24;;;;;;;13.93;4.40;;;19.10;99.90;;;;;;7347389;32;20124;-65
2022/10/30 10:45:41;;;;;;;13.93;4.53;;;19.20;99.90;;;;;;7354559;32;20229;-64
2022/10/30 10:50:08;;;;;;;14.47;4.10;;;19.30;99.90;;;;;;7347854;32;20141;-65
2022/10/30 10:54:39;;;;;;;10.43;4.03;;;19.30;99.90;;;;;;7350623;32;20209;-58
2022/10/30 10:58:55;;;;;;;13.38;4.47;;;19.50;99.90;;;;;;7350139;32;20858;-58
2022/10/30 11:03:12;;;;;;;17.92;4.22;;;19.70;99.90;;;;;;7352103;32;20103;-58
2022/10/30 11:07:25;;;;;;;13.65;4.72;;;19.70;99.90;;;;;;7351920;32;20104;-66
2022/10/30 11:11:27;;;;;;;12.88;3.85;;;19.80;99.90;;;;;;7351537;32;20622;-64
2022/10/30 11:15:57;;;;;;;15.52;3.78;;;19.60;99.90;;;;;;7346805;32;20126;-65
2022/10/30 11:20:10;;;;;;;17.10;4.65;;;19.60;99.90;;;;;;7350936;32;20095;-65
2022/10/30 11:24:32;;;;;;;13.82;3.53;;;19.70;99.90;;;;;;7352264;32;20198;-65
2022/10/30 11:28:40;;;;;;;12.63;3.60;;;19.70;99.90;;;;;;7344030;32;20194;-66
2022/10/30 11:32:42;;;;;;;9.43;3.80;;;19.80;99.90;;;;;;7347857;32;20144;-66
2022/10/30 11:36:48;;;;;;;12.25;3.37;;;20.00;99.90;;;;;;7352956;32;20380;-65
2022/10/30 11:40:51;;;;;;;10.30;4.00;;;20.10;99.90;;;;;;7348401;32;20107;-65
2022/10/30 11:44:53;;;;;;;10.80;4.30;;;20.20;99.90;;;;;;7346065;32;20107;-65
2022/10/30 11:48:55;;;;;;;9.40;3.53;;;20.50;99.90;;;;;;7346542;32;20107;-65
2022/10/30 11:53:10;;;;;;;11.80;3.70;;;20.30;99.90;;;;;;7352027;32;20242;-65
2022/10/30 11:57:18;;;;;;;12.63;4.10;;;20.50;99.90;;;;;;7351193;32;20178;-66
2022/10/30 12:01:24;;;;;;;12.55;4.35;;;20.50;99.90;;;;;;7345435;32;20217;-66
2022/10/30 12:05:31;;;;;;;11.35;3.70;;;20.50;99.90;;;;;;7337513;32;20389;-64
2022/10/30 12:09:45;;;;;;;13.07;3.90;;;20.40;99.90;;;;;;7351817;32;20222;-65
2022/10/30 12:13:46;;;;;;;14.85;4.68;;;20.30;99.90;;;;;;7346915;32;20269;-66
2022/10/30 12:17:51;;;;;;;13.65;4.20;;;20.20;99.90;;;;;;7346372;32;20133;-65
2022/10/30 12:21:55;;;;;;;13.82;3.60;;;20.20;99.90;;;;;;7343573;32;20517;-59
2022/10/30 12:26:08;;;;;;;16.10;4.43;;;20.40;99.90;;;;;;7352583;32;20111;-57
2022/10/30 12:30:20;;;;;;;14.10;3.83;;;20.70;99.90;;;;;;7361526;32;20149;-57
2022/10/30 12:34:47;;;;;;;10.80;3.72;;;20.70;99.90;;;;;;7353831;32;20106;-58
2022/10/30 12:39:08;;;;;;;8.95;4.00;;;20.70;99.90;;;;;;7348982;32;20095;-58
2022/10/30 12:43:21;;;;;;;15.10;3.50;;;20.90;99.90;;;;;;7354440;32;20095;-59
2022/10/30 12:47:34;;;;;;;8.68;4.15;;;20.70;99.90;;;;;;7356328;32;20205;-59
2022/10/30 12:51:53;;;;;;;13.38;4.12;;;20.80;99.90;;;;;;7349838;32;20245;-59
2022/10/30 12:56:01;;;;;;;14.52;4.78;;;20.80;99.90;;;;;;7350564;32;20098;-60
2022/10/30 13:00:12;;;;;;;11.75;3.97;;;21.00;99.90;;;;;;7352927;32;20095;-59
2022/10/30 13:04:16;;;;;;;8.93;3.80;;;21.10;99.90;;;;;;7356198;32;20104;-60
2022/10/30 13:08:52;;;;;;;11.38;3.70;;;21.10;99.90;;;;;;7344511;32;20108;-59
2022/10/30 13:13:00;;;;;;;10.63;3.53;;;21.40;99.90;;;;;;7353352;32;20098;-66
2022/10/30 13:17:02;;;;;;;13.65;4.50;;;21.50;99.90;;;;;;7354866;32;20117;-65
2022/10/30 13:21:10;;;;;;;9.82;3.90;;;21.30;99.90;;;;;;7357128;32;20121;-66
2022/10/30 13:25:16;;;;;;;11.50;3.65;;;21.30;99.90;;;;;;7350736;32;20099;-66
2022/10/30 13:29:40;;;;;;;11.95;3.50;;;21.40;99.90;;;;;;7345183;32;20110;-57
2022/10/30 13:34:05;;;;;;;10.07;3.67;;;21.40;99.90;;;;;;7355819;32;20111;-64
2022/10/30 13:38:10;;;;;;;10.35;3.65;;;21.20;99.90;;;;;;7347102;32;20302;-64
2022/10/30 13:42:26;;;;;;;9.88;3.53;;;21.20;99.90;;;;;;7346266;32;20460;-66
2022/10/30 13:46:58;;;;;;;11.10;3.73;;;21.20;99.90;;;;;;7348777;32;20103;-63
2022/10/30 13:51:29;;;;;;;13.98;3.70;;;21.20;99.90;;;;;;7355093;32;20670;-64
2022/10/30 13:55:36;;;;;;;7.78;3.58;;;21.10;99.90;;;;;;7360760;32;20585;-64
2022/10/30 13:59:59;;;;;;;12.93;3.55;;;21.10;99.90;;;;;;7358504;32;20206;-64
2022/10/30 14:04:08;;;;;;;12.75;3.80;;;21.20;99.90;;;;;;7346376;32;20223;-64
2022/10/30 14:08:51;;;;;;;11.60;3.85;;;21.30;99.90;;;;;;7353137;32;20126;-64
2022/10/30 14:12:56;;;;;;;9.05;3.55;;;21.30;99.90;;;;;;7345555;32;20113;-65
2022/10/30 14:17:11;;;;;;;14.52;3.55;;;21.30;99.90;;;;;;7352498;32;20186;-64
2022/10/30 14:21:34;;;;;;;11.55;3.55;;;21.30;99.90;;;;;;7352185;32;20760;-64
2022/10/30 14:25:36;;;;;;;11.18;3.30;;;21.20;99.90;;;;;;7358461;32;20369;-65
2022/10/30 14:29:45;;;;;;;8.68;3.50;;;21.00;99.90;;;;;;7355047;32;20114;-64
2022/10/30 14:33:49;;;;;;;8.60;4.03;;;20.90;99.90;;;;;;7351351;32;20187;-64
2022/10/30 14:37:51;;;;;;;8.10;3.42;;;20.60;99.90;;;;;;7358069;32;20271;-64
2022/10/30 14:42:10;;;;;;;9.10;3.75;;;20.50;99.90;;;;;;7350941;32;20100;-64
2022/10/30 14:46:25;;;;;;;13.38;4.18;;;20.50;99.90;;;;;;7358917;32;20099;-64
2022/10/30 14:50:43;;;;;;;11.45;4.37;;;20.40;99.90;;;;;;7355131;32;20217;-63
2022/10/30 14:54:58;;;;;;;10.00;3.60;;;20.20;99.90;;;;;;7359395;32;20103;-63
2022/10/30 14:59:12;;;;;;;15.18;4.20;;;20.10;99.90;;;;;;7358089;32;20099;-63
2022/10/30 15:03:32;;;;;;;10.23;4.22;;;20.00;99.90;;;;;;7350702;32;20099;-63
2022/10/30 15:07:50;;;;;;;9.88;4.28;;;19.80;99.90;;;;;;7357596;32;20512;-62
2022/10/30 15:11:59;;;;;;;13.13;3.80;;;19.60;99.90;;;;;;7352927;32;20115;-64
2022/10/30 15:16:06;;;;;;;8.45;3.35;;;19.50;99.90;;;;;;7358631;32;20127;-62
2022/10/30 15:20:13;;;;;;;8.77;3.83;;;19.40;99.90;;;;;;7354882;32;20708;-63
2022/10/30 15:24:17;;;;;;;9.52;3.62;;;19.20;99.90;;;;;;7358062;32;20116;-63
2022/10/30 15:28:22;;;;;;;9.20;3.55;;;19.00;99.90;;;;;;7359991;32;20652;-63
2022/10/30 15:32:25;;;;;;;9.52;3.67;;;18.90;99.90;;;;;;7356771;32;20110;-63
2022/10/30 15:36:41;;;;;;;9.50;4.12;;;18.70;99.90;;;;;;7356549;32;20108;-62
2022/10/30 15:40:43;;;;;;;12.00;4.37;;;18.70;99.90;;;;;;7357994;32;20481;-63
2022/10/30 15:44:45;;;;;;;11.40;4.20;;;18.50;99.90;;;;;;7346375;32;20108;-63
2022/10/30 15:48:47;;;;;;;14.85;7.75;;;18.50;99.90;;;;;;7357126;32;20123;-63
2022/10/30 15:52:51;;;;;;;11.82;6.03;;;18.30;99.90;;;;;;7347656;32;20102;-63
2022/10/30 15:56:56;;;;;;;15.02;6.53;;;18.10;99.90;;;;;;7351130;32;20112;-59
2022/10/30 16:01:32;;;;;;;12.27;5.45;;;17.80;99.90;;;;;;7353821;32;20123;-63
2022/10/30 16:05:34;;;;;;;13.38;4.80;;;17.60;99.90;;;;;;7360083;32;20213;-64
2022/10/30 16:09:36;;;;;;;13.50;5.28;;;17.40;99.90;;;;;;7362286;32;20134;-63
2022/10/30 16:13:37;;;;;;;12.90;4.75;;;17.10;99.90;;;;;;7362898;32;20186;-63
2022/10/30 16:17:40;;;;;;;16.58;5.55;;;16.90;99.90;;;;;;7357608;32;20096;-63
2022/10/30 16:21:46;;;;;;;11.75;4.85;;;16.70;99.90;;;;;;7360184;32;20407;-59
2022/10/30 16:25:53;;;;;;;15.25;4.55;;;16.50;99.90;;;;;;7349209;32;20181;-59
2022/10/30 16:29:57;;;;;;;14.77;5.00;;;16.30;99.90;;;;;;7365510;32;20125;-59
2022/10/30 16:34:00;;;;;;;9.32;5.40;;;16.10;99.90;;;;;;7360949;32;20328;-59
2022/10/30 16:38:03;;;;;;;12.82;4.57;;;15.90;99.90;;;;;;7349598;32;20107;-59
2022/10/30 16:42:04;;;;;;;13.27;5.60;;;15.80;99.90;;;;;;7351506;32;20095;-59
2022/10/30 16:46:15;;;;;;;15.50;5.70;;;15.60;99.90;;;;;;7346097;32;20679;-61
2022/10/30 16:50:18;;;;;;;14.43;4.95;;;15.40;99.90;;;;;;7354500;32;20096;-61
2022/10/30 16:54:24;;;;;;;17.60;6.45;;;15.30;99.90;;;;;;7354979;32;20113;-61
2022/10/30 16:58:29;;;;;;;19.25;6.00;;;15.10;99.90;;;;;;7353928;32;20102;-61
2022/10/30 17:02:34;;;;;;;13.65;6.47;;;14.90;99.90;;;;;;7364019;32;20103;-61
2022/10/30 17:06:40;;;;;;;14.38;5.32;;;14.90;99.90;;;;;;7361140;32;20107;-60
2022/10/30 17:11:15;;;;;;;25.40;12.52;;;14.70;99.90;;;;;;7345785;32;20501;-60
2022/10/30 17:15:19;;;;;;;16.55;7.60;;;14.70;99.90;;;;;;7345044;32;20123;-59
2022/10/30 17:19:30;;;;;;;16.95;6.03;;;14.50;99.90;;;;;;7355988;32;20117;-59
2022/10/30 17:23:34;;;;;;;22.52;9.70;;;14.50;99.90;;;;;;7346336;32;20173;-59
2022/10/30 17:27:47;;;;;;;18.62;10.77;;;14.30;99.90;;;;;;7354250;32;20131;-59
2022/10/30 17:31:49;;;;;;;15.23;7.70;;;14.20;99.90;;;;;;7352861;32;20190;-59
2022/10/30 17:35:51;;;;;;;18.87;6.70;;;14.10;99.90;;;;;;7356410;32;20134;-59
2022/10/30 17:39:57;;;;;;;12.18;5.97;;;14.00;99.90;;;;;;7358375;32;20652;-59
2022/10/30 17:44:00;;;;;;;10.93;5.80;;;14.00;99.90;;;;;;7350989;32;20122;-59
2022/10/30 17:48:02;;;;;;;14.05;5.80;;;13.90;99.90;;;;;;7353744;32;20202;-60
2022/10/30 17:52:03;;;;;;;27.95;17.67;;;13.90;99.90;;;;;;7357349;32;20103;-59
2022/10/30 17:56:26;;;;;;;24.33;13.40;;;13.90;99.90;;;;;;7357438;32;20100;-59
2022/10/30 18:00:28;;;;;;;17.37;10.10;;;13.80;99.90;;;;;;7356009;32;20193;-59
2022/10/30 18:04:29;;;;;;;14.25;6.07;;;13.80;99.90;;;;;;7343252;32;20108;-59
2022/10/30 18:08:31;;;;;;;15.93;8.07;;;13.60;99.90;;;;;;7347913;32;20137;-59
2022/10/30 18:12:33;;;;;;;20.95;9.80;;;13.60;99.90;;;;;;7358398;32;20099;-59
2022/10/30 18:16:34;;;;;;;20.55;7.93;;;13.50;99.90;;;;;;7349262;32;20194;-58
2022/10/30 18:20:37;;;;;;;16.12;7.43;;;13.40;99.90;;;;;;7353519;32;20104;-59
2022/10/30 18:24:39;;;;;;;16.10;6.25;;;13.30;99.90;;;;;;7353399;32;20107;-59
2022/10/30 18:28:42;;;;;;;15.80;6.00;;;13.30;99.90;;;;;;7358107;32;20095;-59
2022/10/30 18:32:44;;;;;;;11.32;6.50;;;13.20;99.90;;;;;;7346058;32;20236;-59
2022/10/30 18:36:45;;;;;;;18.27;7.22;;;13.10;99.90;;;;;;7352205;32;20103;-58
2022/10/30 18:40:49;;;;;;;19.15;6.68;;;13.10;99.90;;;;;;7351893;32;20182;-58
2022/10/30 18:44:51;;;;;;;11.00;6.55;;;13.00;99.90;;;;;;7351799;32;20103;-59
2022/10/30 18:48:52;;;;;;;30.15;18.98;;;13.00;99.90;;;;;;7346009;32;20099;-59
2022/10/30 18:52:54;;;;;;;26.33;13.95;;;12.90;99.90;;;;;;7354480;32;20099;-59
2022/10/30 18:56:56;;;;;;;20.65;8.40;;;12.90;99.90;;;;;;7351111;32;20099;-60
2022/10/30 19:00:58;;;;;;;14.85;6.55;;;12.90;99.90;;;;;;7344774;32;20137;-59
2022/10/30 19:05:48;;;;;;;16.52;7.87;;;12.90;99.90;;;;;;7348031;32;20150;-60
2022/10/30 19:09:50;;;;;;;19.02;7.72;;;12.90;99.90;;;;;;7353371;32;20129;-59
2022/10/30 19:13:53;;;;;;;41.17;26.70;;;12.80;99.90;;;;;;7351266;32;20164;-60
2022/10/30 19:17:54;;;;;;;16.12;6.93;;;12.80;99.90;;;;;;7340054;32;20160;-59
2022/10/30 19:21:56;;;;;;;12.13;5.82;;;12.80;99.90;;;;;;7350622;32;20127;-59
2022/10/30 19:25:58;;;;;;;16.35;6.62;;;12.80;99.90;;;;;;7346467;32;20520;-58
2022/10/30 19:30:00;;;;;;;16.65;5.87;;;12.80;99.90;;;;;;7348439;32;20243;-59
2022/10/30 19:34:02;;;;;;;21.37;6.60;;;12.80;99.90;;;;;;7350038;32;20114;-59
2022/10/30 19:38:06;;;;;;;15.55;5.72;;;12.70;99.90;;;;;;7350041;32;20103;-59
2022/10/30 19:42:08;;;;;;;16.73;6.40;;;12.70;99.90;;;;;;7352217;32;20204;-59
2022/10/30 19:46:11;;;;;;;13.43;7.32;;;12.70;99.90;;;;;;7347864;32;20194;-59
2022/10/30 19:50:32;;;;;;;19.77;6.95;;;12.70;99.90;;;;;;7350961;32;20178;-59
2022/10/30 19:54:34;;;;;;;18.95;7.15;;;12.70;99.90;;;;;;7351043;32;20118;-60
2022/10/30 19:58:36;;;;;;;13.27;7.10;;;12.70;99.90;;;;;;7349779;32;20099;-59
2022/10/30 20:02:37;;;;;;;22.27;6.40;;;12.60;99.90;;;;;;7344876;32;20386;-60
2022/10/30 20:06:39;;;;;;;20.80;7.43;;;12.50;99.90;;;;;;7346970;32;20515;-59
2022/10/30 20:10:47;;;;;;;19.95;7.68;;;12.50;99.90;;;;;;7350319;32;20095;-59
2022/10/30 20:14:49;;;;;;;18.62;6.95;;;12.50;99.90;;;;;;7347294;32;20170;-59
2022/10/30 20:18:50;;;;;;;16.77;5.68;;;12.30;99.90;;;;;;7350291;32;20118;-59
2022/10/30 20:22:53;;;;;;;19.15;6.50;;;12.30;99.90;;;;;;7345534;32;20476;-59
2022/10/30 20:26:56;;;;;;;16.98;6.75;;;12.30;99.90;;;;;;7347520;32;20123;-58
2022/10/30 20:30:58;;;;;;;20.60;8.20;;;12.20;99.90;;;;;;7345713;32;20130;-59
2022/10/30 20:34:59;;;;;;;21.95;7.90;;;12.10;99.90;;;;;;7353582;32;20111;-59
2022/10/30 20:39:01;;;;;;;18.77;6.90;;;12.00;99.90;;;;;;7348005;32;20198;-59
2022/10/30 20:43:03;;;;;;;22.55;6.78;;;12.00;99.90;;;;;;7351464;32;20115;-59
2022/10/30 20:47:04;;;;;;;19.17;8.73;;;11.90;99.90;;;;;;7351552;32;20471;-59
2022/10/30 20:51:06;;;;;;;39.03;13.82;;;11.90;99.90;;;;;;7351679;32;20182;-59
2022/10/30 20:55:09;;;;;;;35.67;14.50;;;11.90;99.90;;;;;;7351989;32;20612;-59
2022/10/30 20:59:11;;;;;;;39.17;16.52;;;11.70;99.90;;;;;;7355512;32;20186;-59
2022/10/30 21:03:14;;;;;;;85.40;35.53;;;11.70;99.90;;;;;;7360038;32;20103;-58
2022/10/30 21:07:15;;;;;;;53.17;22.45;;;11.70;99.90;;;;;;7353802;32;20190;-59
2022/10/30 21:11:17;;;;;;;26.27;11.57;;;11.60;99.90;;;;;;7354240;32;20110;-59